createdAt,value
2018-05-19T00:00:35.916Z,13.10
2018-05-19T00:03:04.328Z,11.85
2018-05-19T00:05:32.730Z,12.75
2018-05-19T00:08:01.200Z,13.52
2018-05-19T00:10:29.592Z,13.85
2018-05-19T00:12:57.994Z,12.18
2018-05-19T00:15:26.422Z,12.32
2018-05-19T00:17:54.967Z,11.88
2018-05-19T00:20:23.344Z,14.07
2018-05-19T00:22:51.922Z,12.27
2018-05-19T00:25:20.302Z,12.48
2018-05-19T00:27:48.672Z,13.60
2018-05-19T00:30:17.079Z,14.63
2018-05-19T00:32:45.533Z,13.02
2018-05-19T00:35:14.008Z,11.77
2018-05-19T00:37:42.380Z,14.85
2018-05-19T00:40:10.856Z,12.60
2018-05-19T00:42:39.239Z,12.85
2018-05-19T00:45:07.617Z,13.38
2018-05-19T00:47:36.113Z,13.85
2018-05-19T00:50:04.493Z,13.95
2018-05-19T00:52:32.897Z,12.73
2018-05-19T00:55:05.961Z,13.30
2018-05-19T00:57:34.376Z,12.77
2018-05-19T01:00:02.747Z,13.23
2018-05-19T01:02:31.372Z,15.15
2018-05-19T01:04:59.748Z,13.60
2018-05-19T01:07:28.132Z,13.02
2018-05-19T01:09:56.560Z,15.05
2018-05-19T01:12:24.942Z,13.05
2018-05-19T01:14:53.348Z,13.62
2018-05-19T01:17:22.489Z,13.23
2018-05-19T01:19:51.088Z,13.15
2018-05-19T01:22:19.460Z,13.23
2018-05-19T01:24:47.836Z,14.80
2018-05-19T01:27:16.236Z,13.48
2018-05-19T01:29:44.621Z,14.75
2018-05-19T01:32:13.022Z,13.15
2018-05-19T01:34:42.168Z,15.52
2018-05-19T01:37:10.572Z,16.33
2018-05-19T01:39:38.949Z,14.45
2018-05-19T01:42:07.329Z,14.50
2018-05-19T01:44:35.731Z,16.17
2018-05-19T01:47:04.873Z,14.43
2018-05-19T01:49:33.291Z,15.02
2018-05-19T01:52:01.668Z,13.80
2018-05-19T01:54:30.311Z,13.55
2018-05-19T01:56:58.689Z,15.80
2018-05-19T01:59:27.060Z,16.08
2018-05-19T02:01:55.456Z,16.05
2018-05-19T02:04:23.833Z,14.43
2018-05-19T02:06:52.233Z,14.63
2018-05-19T02:09:20.621Z,14.32
2018-05-19T02:11:49.079Z,17.23
2018-05-19T02:14:17.461Z,15.18
2018-05-19T02:16:45.828Z,14.75
2018-05-19T02:19:14.225Z,14.15
2018-05-19T02:21:42.603Z,15.80
2018-05-19T02:24:11.012Z,14.05
2018-05-19T02:26:40.156Z,14.18
2018-05-19T02:29:08.764Z,14.52
2018-05-19T02:31:37.149Z,14.13
2018-05-19T02:34:05.528Z,15.00
2018-05-19T02:36:33.932Z,14.87
2018-05-19T02:39:03.081Z,14.23
2018-05-19T02:41:31.479Z,14.77
2018-05-19T02:43:59.858Z,14.68
2018-05-19T02:46:28.286Z,14.40
2018-05-19T02:48:56.799Z,14.82
2018-05-19T02:51:25.238Z,15.27
2018-05-19T02:53:53.637Z,12.63
2018-05-19T02:56:22.010Z,15.18
2018-05-19T02:58:50.409Z,16.27
2018-05-19T03:01:18.789Z,13.77
2018-05-19T03:03:47.472Z,14.18
2018-05-19T03:06:15.857Z,16.02
2018-05-19T03:08:44.228Z,15.25
2018-05-19T03:11:12.619Z,12.85
2018-05-19T03:13:40.989Z,14.65
2018-05-19T03:16:09.376Z,13.85
2018-05-19T03:18:37.757Z,12.57
2018-05-19T03:21:06.173Z,13.77
2018-05-19T03:23:35.308Z,13.70
2018-05-19T03:26:03.685Z,20.23
2018-05-19T03:28:32.807Z,14.35
2018-05-19T03:31:01.181Z,16.27
2018-05-19T03:33:29.579Z,14.45
2018-05-19T03:35:58.024Z,15.05
2018-05-19T03:38:27.163Z,13.82
2018-05-19T03:40:55.532Z,15.88
2018-05-19T03:43:23.905Z,14.57
2018-05-19T03:45:52.291Z,16.33
2018-05-19T03:48:20.658Z,13.18
2018-05-19T03:50:49.141Z,13.93
2018-05-19T03:53:17.512Z,15.50
2018-05-19T03:55:46.012Z,14.93
2018-05-19T04:01:40.468Z,12.32
2018-05-19T04:04:08.840Z,14.65
2018-05-19T04:06:37.251Z,14.57
2018-05-19T04:09:06.983Z,12.60
2018-05-19T04:11:35.362Z,13.13
2018-05-19T04:14:04.617Z,13.80
2018-05-19T04:16:32.936Z,12.88
2018-05-19T04:19:01.334Z,14.10
2018-05-19T04:21:30.533Z,14.10
2018-05-19T04:23:59.988Z,14.30
2018-05-19T04:26:28.352Z,15.70
2018-05-19T04:28:56.716Z,15.32
2018-05-19T04:31:25.104Z,15.40
2018-05-19T04:33:53.473Z,14.40
2018-05-19T04:36:21.867Z,14.50
2018-05-19T04:38:50.238Z,14.85
2018-05-19T04:41:18.932Z,14.02
2018-05-19T04:43:47.304Z,14.07
2018-05-19T04:46:15.681Z,16.37
2018-05-19T04:48:44.077Z,15.50
2018-05-19T04:51:12.456Z,16.25
2018-05-19T04:53:40.881Z,16.60
2018-05-19T04:56:10.022Z,15.70
2018-05-19T04:58:38.628Z,16.02
2018-05-19T05:01:07.006Z,15.57
2018-05-19T05:03:35.379Z,15.45
2018-05-19T05:06:03.784Z,14.68
2018-05-19T05:08:32.173Z,14.43
2018-05-19T05:11:00.572Z,15.60
2018-05-19T05:13:28.944Z,14.07
2018-05-19T05:15:58.385Z,15.15
2018-05-19T05:18:26.785Z,14.50
2018-05-19T05:20:55.165Z,15.32
2018-05-19T05:23:23.575Z,15.88
2018-05-19T05:25:52.721Z,14.82
2018-05-19T05:28:21.116Z,13.77
2018-05-19T05:30:49.497Z,14.85
2018-05-19T05:33:18.165Z,14.23
2018-05-19T05:35:46.565Z,16.15
2018-05-19T05:38:14.954Z,14.20
2018-05-19T05:40:43.357Z,15.82
2018-05-19T05:43:12.498Z,14.15
2018-05-19T05:45:40.909Z,15.20
2018-05-19T05:48:09.288Z,15.38
2018-05-19T05:50:38.748Z,15.27
2018-05-19T05:53:07.134Z,15.98
2018-05-19T05:55:35.518Z,15.40
2018-05-19T05:58:03.921Z,13.77
2018-05-19T06:00:32.300Z,15.15
2018-05-19T06:03:00.709Z,16.50
2018-05-19T06:05:29.852Z,15.25
2018-05-19T06:07:58.293Z,16.52
2018-05-19T06:10:26.668Z,15.85
2018-05-19T06:12:55.804Z,14.60
2018-05-19T06:15:24.221Z,16.35
2018-05-19T06:17:52.598Z,14.18
2018-05-19T06:20:20.994Z,14.50
2018-05-19T06:22:49.389Z,14.27
2018-05-19T06:25:18.690Z,16.75
2018-05-19T06:27:47.069Z,14.20
2018-05-19T06:30:15.465Z,15.38
2018-05-19T06:32:43.866Z,14.13
2018-05-19T06:35:12.241Z,15.32
2018-05-19T06:37:40.673Z,15.70
2018-05-19T06:40:09.829Z,13.15
2018-05-19T06:42:39.241Z,13.45
2018-05-19T06:45:07.633Z,14.00
2018-05-19T06:47:36.772Z,13.43
2018-05-19T06:50:05.192Z,14.68
2018-05-19T06:52:33.568Z,14.65
2018-05-19T06:55:02.003Z,15.70
2018-05-19T06:57:30.384Z,15.00
2018-05-19T06:59:58.821Z,14.25
2018-05-19T07:02:27.993Z,14.48
2018-05-19T07:04:56.378Z,15.23
2018-05-19T07:07:24.799Z,14.38
2018-05-19T07:09:53.179Z,16.10
2018-05-19T07:12:21.578Z,15.00
2018-05-19T07:14:49.960Z,22.23
2018-05-19T07:17:18.393Z,16.13
2018-05-19T07:19:46.807Z,14.50
2018-05-19T07:22:15.180Z,13.47
2018-05-19T07:24:43.581Z,14.30
2018-05-19T07:27:11.965Z,14.55
2018-05-19T07:29:40.450Z,15.20
2018-05-19T07:32:08.832Z,14.33
2018-05-19T07:34:37.253Z,13.83
2018-05-19T07:37:06.398Z,14.90
2018-05-19T07:39:34.844Z,14.87
2018-05-19T07:42:03.296Z,13.97
2018-05-19T07:44:31.655Z,13.97
2018-05-19T07:47:00.065Z,13.87
2018-05-19T07:49:29.213Z,13.63
2018-05-19T07:51:57.788Z,12.90
2018-05-19T07:54:26.169Z,25.30
2018-05-19T07:56:54.550Z,14.37
2018-05-19T07:59:23.538Z,13.97
2018-05-19T08:01:51.944Z,17.13
2018-05-19T08:04:20.534Z,14.97
2018-05-19T08:06:48.870Z,15.70
2018-05-19T08:09:17.467Z,14.80
2018-05-19T08:11:45.996Z,14.70
2018-05-19T08:14:15.141Z,17.10
2018-05-19T08:16:43.614Z,15.90
2018-05-19T08:19:12.066Z,15.20
2018-05-19T08:21:41.237Z,15.60
2018-05-19T08:24:09.653Z,15.93
2018-05-19T08:26:38.465Z,25.00
2018-05-19T08:29:07.054Z,16.60
2018-05-19T08:31:35.783Z,16.20
2018-05-19T08:34:05.201Z,15.40
2018-05-19T08:36:33.594Z,15.53
2018-05-19T08:39:02.298Z,14.67
2018-05-19T08:41:30.672Z,15.40
2018-05-19T08:43:59.795Z,15.77
2018-05-19T08:46:28.936Z,15.53
2018-05-19T08:49:06.220Z,17.40
2018-05-19T08:51:35.419Z,15.57
2018-05-19T08:54:04.591Z,17.33
2018-05-19T08:56:32.989Z,16.87
2018-05-19T08:59:01.423Z,16.50
2018-05-19T09:01:29.898Z,18.20
2018-05-19T09:03:58.277Z,18.90
2018-05-19T09:06:26.673Z,18.93
2018-05-19T09:08:55.052Z,17.60
2018-05-19T09:11:23.809Z,18.63
2018-05-19T09:13:52.185Z,16.77
2018-05-19T09:16:20.557Z,16.30
2018-05-19T09:18:48.960Z,17.60
2018-05-19T09:21:18.575Z,15.73
2018-05-19T09:23:48.580Z,14.83
2018-05-19T09:26:19.169Z,15.70
2018-05-19T09:28:48.581Z,16.93
2018-05-19T09:31:21.982Z,17.13
2018-05-19T09:33:55.277Z,13.80
2018-05-19T09:36:27.493Z,17.33
2018-05-19T09:38:57.561Z,16.00
2018-05-19T09:41:26.816Z,16.50
2018-05-19T09:43:55.333Z,19.73
2018-05-19T09:46:24.160Z,21.50
2018-05-19T09:48:53.892Z,15.90
2018-05-19T09:51:25.545Z,14.20
2018-05-19T09:53:55.577Z,14.70
2018-05-19T09:56:26.070Z,14.33
2018-05-19T09:58:55.839Z,14.83
2018-05-19T10:01:24.690Z,13.33
2018-05-19T10:03:55.982Z,13.77
2018-05-19T10:06:24.777Z,11.10
2018-05-19T10:08:53.258Z,12.87
2018-05-19T10:11:21.575Z,12.93
2018-05-19T10:13:50.957Z,10.00
2018-05-19T10:16:19.343Z,10.37
2018-05-19T10:18:47.707Z,10.43
2018-05-19T10:21:16.110Z,8.80
2018-05-19T10:23:44.488Z,11.27
2018-05-19T10:26:15.473Z,11.03
2018-05-19T10:28:44.613Z,10.90
2018-05-19T10:31:13.398Z,12.27
2018-05-19T10:33:41.854Z,15.60
2018-05-19T10:36:10.238Z,9.43
2018-05-19T10:38:38.686Z,9.83
2018-05-19T10:41:07.884Z,10.83
2018-05-19T10:43:36.299Z,9.43
2018-05-19T10:46:04.679Z,8.60
2018-05-19T10:48:33.208Z,9.33
2018-05-19T10:51:02.412Z,8.33
2018-05-19T10:53:30.856Z,8.77
2018-05-19T10:55:59.303Z,9.83
2018-05-19T10:58:27.767Z,9.00
2018-05-19T11:00:56.929Z,11.03
2018-05-19T11:03:25.313Z,8.87
2018-05-19T11:05:53.737Z,10.53
2018-05-19T11:08:22.268Z,12.30
2018-05-19T11:10:50.739Z,10.20
2018-05-19T11:13:19.576Z,8.93
2018-05-19T11:15:47.965Z,8.77
2018-05-19T11:18:16.357Z,9.60
2018-05-19T11:20:44.732Z,8.90
2018-05-19T11:23:13.529Z,8.60
2018-05-19T11:25:42.025Z,9.13
2018-05-19T11:28:10.335Z,9.07
2018-05-19T11:30:38.752Z,9.47
2018-05-19T11:33:07.137Z,6.40
2018-05-19T11:35:35.551Z,9.83
2018-05-19T11:38:04.030Z,10.37
2018-05-19T11:40:32.479Z,8.10
2018-05-19T11:43:20.601Z,6.40
2018-05-19T11:45:49.037Z,6.77
2018-05-19T11:48:17.457Z,7.70
2018-05-19T11:50:46.066Z,7.30
2018-05-19T11:53:15.200Z,6.33
2018-05-19T11:55:43.692Z,7.17
2018-05-19T11:58:12.091Z,6.47
2018-05-19T12:00:41.325Z,6.97
2018-05-19T12:03:09.771Z,9.00
2018-05-19T12:05:39.076Z,6.00
2018-05-19T12:08:07.609Z,6.97
2018-05-19T12:10:36.032Z,5.63
2018-05-19T12:13:05.177Z,6.97
2018-05-19T12:15:33.643Z,8.03
2018-05-19T12:18:02.056Z,8.07
2018-05-19T12:20:30.924Z,6.90
2018-05-19T12:22:59.324Z,5.87
2018-05-19T12:25:28.010Z,7.03
2018-05-19T12:27:56.413Z,6.50
2018-05-19T12:30:25.576Z,6.40
2018-05-19T12:32:54.012Z,5.60
2018-05-19T12:35:22.467Z,6.27
2018-05-19T12:37:51.864Z,7.03
2018-05-19T12:40:21.072Z,6.07
2018-05-19T12:42:50.262Z,6.13
2018-05-19T12:45:19.490Z,7.33
2018-05-19T12:47:47.864Z,5.93
2018-05-19T12:50:16.482Z,7.13
2018-05-19T12:52:44.885Z,5.50
2018-05-19T12:55:13.570Z,5.63
2018-05-19T12:57:41.981Z,6.10
2018-05-19T13:00:11.728Z,6.10
2018-05-19T13:02:40.137Z,7.10
2018-05-19T13:05:08.581Z,6.50
2018-05-19T13:07:36.985Z,7.50
2018-05-19T13:10:05.370Z,6.33
2018-05-19T13:12:34.481Z,6.10
2018-05-19T13:15:03.652Z,5.90
2018-05-19T13:17:32.081Z,5.57
2018-05-19T13:20:01.282Z,6.20
2018-05-19T13:22:29.695Z,5.37
2018-05-19T13:24:58.133Z,6.13
2018-05-19T13:27:27.316Z,5.53
2018-05-19T13:29:56.731Z,6.60
2018-05-19T13:32:25.953Z,7.00
2018-05-19T13:34:54.360Z,6.30
2018-05-19T13:37:22.821Z,8.77
2018-05-19T13:39:51.196Z,9.57
2018-05-19T13:42:19.650Z,9.70
2018-05-19T13:44:48.173Z,7.67
2018-05-19T13:47:17.062Z,10.23
2018-05-19T13:49:46.570Z,9.80
2018-05-19T13:52:15.239Z,9.10
2018-05-19T13:54:45.689Z,10.33
2018-05-19T13:57:14.132Z,9.37
2018-05-19T13:59:42.533Z,8.70
2018-05-19T14:02:11.064Z,9.77
2018-05-19T14:04:40.225Z,9.57
2018-05-19T14:07:08.624Z,8.93
2018-05-19T14:09:37.341Z,8.67
2018-05-19T14:12:07.467Z,8.30
2018-05-19T14:14:35.873Z,7.97
2018-05-19T14:17:04.308Z,8.43
2018-05-19T14:19:33.542Z,8.67
2018-05-19T14:22:02.006Z,11.10
2018-05-19T14:24:30.385Z,13.47
2018-05-19T14:26:59.202Z,9.43
2018-05-19T14:29:28.265Z,9.67
2018-05-19T14:31:56.640Z,8.20
2018-05-19T14:34:25.035Z,8.97
2018-05-19T14:36:53.413Z,9.63
2018-05-19T14:39:22.244Z,8.33
2018-05-19T14:41:50.867Z,9.60
2018-05-19T14:44:19.490Z,9.00
2018-05-19T14:46:47.934Z,8.90
2018-05-19T14:49:16.673Z,7.53
2018-05-19T14:51:45.170Z,9.37
2018-05-19T14:54:13.573Z,9.73
2018-05-19T14:56:42.793Z,9.57
2018-05-19T14:59:12.837Z,8.10
2018-05-19T15:01:41.346Z,8.37
2018-05-19T15:04:09.753Z,6.37
2018-05-19T15:06:38.136Z,8.13
2018-05-19T15:09:06.536Z,8.57
2018-05-19T15:11:34.937Z,7.60
2018-05-19T15:14:03.494Z,6.70
2018-05-19T15:16:31.903Z,7.27
2018-05-19T15:19:00.565Z,7.80
2018-05-19T15:21:29.006Z,7.67
2018-05-19T15:23:57.419Z,7.40
2018-05-19T15:26:25.848Z,8.77
2018-05-19T15:28:59.519Z,7.40
2018-05-19T15:31:28.919Z,7.03
2018-05-19T15:33:57.836Z,8.10
2018-05-19T15:36:27.152Z,6.00
2018-05-19T15:38:57.174Z,7.00
2018-05-19T15:41:26.386Z,6.30
2018-05-19T15:43:54.905Z,7.43
2018-05-19T15:46:23.872Z,7.13
2018-05-19T15:48:52.303Z,6.40
2018-05-19T15:51:21.062Z,6.47
2018-05-19T15:53:49.582Z,6.60
2018-05-19T15:56:18.880Z,6.40
2018-05-19T15:58:48.403Z,5.90
2018-05-19T16:01:17.530Z,6.70
2018-05-19T16:03:46.280Z,5.90
2018-05-19T16:06:15.956Z,5.20
2018-05-19T16:08:45.003Z,5.70
2018-05-19T16:11:13.800Z,5.30
2018-05-19T16:13:42.493Z,5.13
2018-05-19T16:16:10.966Z,5.20
2018-05-19T16:18:39.380Z,5.17
2018-05-19T16:21:07.769Z,5.00
2018-05-19T16:23:37.616Z,5.90
2018-05-19T16:26:06.244Z,6.70
2018-05-19T16:28:35.238Z,5.40
2018-05-19T16:31:04.160Z,6.10
2018-05-19T16:33:34.580Z,7.37
2018-05-19T16:36:04.249Z,8.03
2018-05-19T16:38:33.094Z,7.07
2018-05-19T16:41:02.035Z,7.07
2018-05-19T16:43:31.040Z,5.50
2018-05-19T16:46:00.043Z,5.30
2018-05-19T16:48:29.805Z,5.85
2018-05-19T16:50:58.769Z,5.80
2018-05-19T16:53:27.197Z,5.85
2018-05-19T16:55:55.661Z,6.60
2018-05-19T16:58:24.244Z,6.78
2018-05-19T17:00:53.065Z,6.00
2018-05-19T17:03:22.039Z,6.18
2018-05-19T17:05:54.226Z,6.53
2018-05-19T17:08:25.536Z,6.57
2018-05-19T17:10:55.365Z,7.18
2018-05-19T17:13:26.756Z,5.72
2018-05-19T17:15:56.364Z,7.47
2018-05-19T17:18:25.231Z,7.35
2018-05-19T17:20:55.374Z,6.70
2018-05-19T17:23:26.396Z,6.40
2018-05-19T17:25:56.335Z,6.07
2018-05-19T17:28:25.296Z,7.05
2018-05-19T17:30:54.155Z,7.70
2018-05-19T17:33:23.072Z,8.32
2018-05-19T17:35:51.866Z,7.65
2018-05-19T17:38:20.592Z,6.25
2018-05-19T17:40:49.005Z,7.15
2018-05-19T17:43:17.515Z,8.05
2018-05-19T17:45:47.123Z,7.97
2018-05-19T17:48:15.654Z,8.00
2018-05-19T17:50:45.210Z,8.10
2018-05-19T17:53:14.809Z,7.03
2018-05-19T17:55:46.891Z,7.62
2018-05-19T17:58:17.129Z,8.27
2018-05-19T18:00:48.257Z,7.95
2018-05-19T18:03:16.925Z,7.43
2018-05-19T18:05:47.762Z,6.62
2018-05-19T18:08:17.027Z,8.25
2018-05-19T18:10:46.791Z,8.35
2018-05-19T18:13:15.958Z,8.68
2018-05-19T18:15:45.202Z,8.50
2018-05-19T18:18:14.468Z,9.35
2018-05-19T18:20:43.759Z,8.18
2018-05-19T18:23:12.179Z,9.02
2018-05-19T18:25:40.553Z,8.43
2018-05-19T18:28:08.963Z,9.00
2018-05-19T18:30:37.359Z,8.13
2018-05-19T18:33:06.086Z,9.95
2018-05-19T18:35:34.569Z,9.43
2018-05-19T18:38:03.133Z,8.95
2018-05-19T18:40:32.536Z,10.55
2018-05-19T18:43:00.965Z,9.95
2018-05-19T18:45:30.358Z,9.80
2018-05-19T18:47:59.590Z,10.40
2018-05-19T18:50:28.953Z,10.77
2018-05-19T18:53:01.390Z,10.25
2018-05-19T18:55:30.178Z,11.57
2018-05-19T18:57:59.024Z,12.45
2018-05-19T19:00:27.651Z,11.00
2018-05-19T19:02:57.673Z,14.45
2018-05-19T19:05:26.051Z,14.23
2018-05-19T19:07:54.596Z,14.57
2018-05-19T19:10:24.145Z,15.05
2018-05-19T19:12:54.395Z,14.80
2018-05-19T19:15:24.428Z,13.00
2018-05-19T19:17:53.904Z,14.15
2018-05-19T19:20:23.484Z,15.23
2018-05-19T19:22:52.131Z,13.05
2018-05-19T19:25:20.623Z,14.60
2018-05-19T19:27:49.438Z,14.82
2018-05-19T19:30:19.616Z,15.55
2018-05-19T19:32:48.647Z,14.32
2018-05-19T19:35:17.324Z,15.00
2018-05-19T19:37:45.729Z,13.88
2018-05-19T19:40:14.109Z,15.63
2018-05-19T19:42:43.115Z,14.85
2018-05-19T19:45:12.673Z,15.27
2018-05-19T19:47:41.180Z,15.57
2018-05-19T19:50:09.728Z,15.77
2018-05-19T19:52:38.234Z,16.05
2018-05-19T19:55:06.687Z,14.45
2018-05-19T19:57:35.116Z,15.13
2018-05-19T20:00:04.241Z,16.33
2018-05-19T20:02:32.683Z,15.48
2018-05-19T20:05:01.360Z,14.70
2018-05-19T20:07:30.849Z,14.95
2018-05-19T20:10:00.315Z,12.18
2018-05-19T20:12:29.713Z,14.93
2018-05-19T20:14:58.929Z,12.82
2018-05-19T20:17:28.059Z,13.65
2018-05-19T20:19:56.525Z,14.73
2018-05-19T20:22:24.964Z,13.50
2018-05-19T20:24:53.396Z,12.95
2018-05-19T20:27:22.925Z,11.82
2018-05-19T20:29:52.034Z,12.20
2018-05-19T20:32:20.509Z,12.32
2018-05-19T20:34:49.011Z,13.30
2018-05-19T20:37:18.346Z,13.60
2018-05-19T20:39:46.910Z,15.73
2018-05-19T20:42:15.328Z,13.25
2018-05-19T20:44:44.217Z,12.37
2018-05-19T20:47:12.646Z,13.77
2018-05-19T20:49:41.800Z,14.20
2018-05-19T20:52:10.226Z,13.15
2018-05-19T20:54:39.421Z,13.48
2018-05-19T20:57:08.646Z,12.85
2018-05-19T20:59:37.025Z,10.95
2018-05-19T21:02:05.517Z,11.88
2018-05-19T21:04:33.909Z,11.70
2018-05-19T21:07:02.700Z,10.63
2018-05-19T21:09:31.229Z,12.70
2018-05-19T21:12:00.628Z,13.30
2018-05-19T21:14:29.958Z,12.25
2018-05-19T21:16:58.647Z,13.43
2018-05-19T21:19:27.567Z,14.60
2018-05-19T21:21:56.522Z,14.35
2018-05-19T21:24:25.941Z,13.68
2018-05-19T21:27:06.977Z,14.38
2018-05-19T21:29:38.216Z,14.70
2018-05-19T21:32:08.942Z,15.20
2018-05-19T21:34:37.518Z,15.63
2018-05-19T21:37:06.437Z,14.27
2018-05-19T21:39:35.762Z,15.93
2018-05-19T21:42:04.189Z,13.45
2018-05-19T21:44:32.603Z,15.50
2018-05-19T21:47:00.985Z,14.27
2018-05-19T21:49:30.101Z,15.10
2018-05-19T21:51:58.632Z,14.15
2018-05-19T21:54:27.790Z,14.38
2018-05-19T21:56:56.267Z,14.95
2018-05-19T21:59:24.754Z,14.20
2018-05-19T22:01:53.194Z,14.52
2018-05-19T22:04:21.755Z,15.32
2018-05-19T22:06:50.548Z,14.45
2018-05-19T22:09:20.145Z,14.15
2018-05-19T22:11:48.527Z,13.68
2018-05-19T22:14:17.176Z,11.25
2018-05-19T22:16:46.581Z,10.43
2018-05-19T22:19:15.056Z,10.73
2018-05-19T22:21:43.473Z,10.25
2018-05-19T22:24:13.209Z,9.90
2018-05-19T22:26:41.589Z,9.38
2018-05-19T22:29:09.989Z,7.78
2018-05-19T22:31:38.708Z,9.68
2018-05-19T22:34:07.089Z,8.15
2018-05-19T22:36:35.489Z,8.25
2018-05-19T22:39:04.648Z,8.90
2018-05-19T22:41:33.381Z,8.77
2018-05-19T22:44:02.537Z,8.25
2018-05-19T22:46:30.969Z,9.10
2018-05-19T22:48:59.341Z,8.27
2018-05-19T22:51:28.484Z,8.55
2018-05-19T22:53:56.957Z,9.10
2018-05-19T22:56:25.328Z,9.30
2018-05-19T22:58:53.823Z,9.95
2018-05-19T23:01:23.077Z,8.95
2018-05-19T23:03:52.277Z,10.30
2018-05-19T23:06:20.657Z,9.23
2018-05-19T23:08:49.037Z,10.18
2018-05-19T23:11:17.624Z,8.27
2018-05-19T23:13:46.948Z,9.50
2018-05-19T23:16:15.344Z,8.93
2018-05-19T23:18:43.720Z,7.80
2018-05-19T23:21:12.154Z,8.75
2018-05-19T23:23:41.702Z,7.72
2018-05-19T23:26:10.078Z,6.65
2018-05-19T23:28:38.476Z,6.65
2018-05-19T23:31:06.852Z,6.90
2018-05-19T23:33:35.253Z,6.90
2018-05-19T23:36:03.621Z,8.10
2018-05-19T23:38:32.813Z,7.70
2018-05-19T23:41:01.188Z,7.07
2018-05-19T23:43:29.581Z,8.93
2018-05-19T23:45:58.465Z,9.25
2018-05-19T23:48:26.837Z,9.18
2018-05-19T23:50:55.396Z,9.38
2018-05-19T23:53:23.933Z,7.68
2018-05-19T23:55:53.232Z,9.30
2018-05-19T23:58:22.987Z,6.35
